createdAt,value
2018-02-10T00:00:14.840Z,1005.1
2018-02-10T00:01:14.817Z,1005.12
2018-02-10T00:02:14.792Z,1005.14
2018-02-10T00:03:14.768Z,1005.11
2018-02-10T00:04:14.743Z,1005.14
2018-02-10T00:05:14.721Z,1005.15
2018-02-10T00:06:14.696Z,1005.13
2018-02-10T00:07:14.674Z,1005.18
2018-02-10T00:08:14.650Z,1005.14
2018-02-10T00:09:14.627Z,1005.11
2018-02-10T00:10:14.603Z,1005.13
2018-02-10T00:11:14.578Z,1005.13
2018-02-10T00:12:14.555Z,1005.13
2018-02-10T00:13:14.535Z,1005.15
2018-02-10T00:14:14.509Z,1005.14
2018-02-10T00:15:14.484Z,1005.1
2018-02-10T00:16:14.460Z,1005.12
2018-02-10T00:17:14.468Z,1005.15
2018-02-10T00:18:14.415Z,1005.09
2018-02-10T00:19:14.391Z,1005.07
2018-02-10T00:20:14.369Z,1005.1
2018-02-10T00:21:14.344Z,1005.1
2018-02-10T00:22:14.320Z,1005.07
2018-02-10T00:23:14.297Z,1005.13
2018-02-10T00:24:14.278Z,1005.08
2018-02-10T00:25:14.250Z,1005.08
2018-02-10T00:26:14.224Z,1005.09
2018-02-10T00:27:14.201Z,1005.05
2018-02-10T00:28:14.178Z,1005.02
2018-02-10T00:29:14.152Z,1005.03
2018-02-10T00:30:14.132Z,1005.05
2018-02-10T00:31:14.107Z,1005.04
2018-02-10T00:32:14.083Z,1004.98
2018-02-10T00:33:14.059Z,1005
2018-02-10T00:34:14.037Z,1004.99
2018-02-10T00:35:14.012Z,1004.99
2018-02-10T00:36:13.989Z,1005.03
2018-02-10T00:37:13.968Z,1004.98
2018-02-10T00:38:13.940Z,1004.98
2018-02-10T00:39:13.918Z,1004.98
2018-02-10T00:40:13.894Z,1004.95
2018-02-10T00:41:13.871Z,1004.95
2018-02-10T00:42:13.846Z,1004.95
2018-02-10T00:43:13.822Z,1004.94
2018-02-10T00:44:13.799Z,1004.95
2018-02-10T00:45:13.776Z,1005.04
2018-02-10T00:46:13.752Z,1005.01
2018-02-10T00:47:13.729Z,1005.01
2018-02-10T00:48:13.712Z,1005.07
2018-02-10T00:49:13.685Z,1005.09
2018-02-10T00:50:13.656Z,1005.08
2018-02-10T00:51:13.633Z,1005.07
2018-02-10T00:52:13.613Z,1005.09
2018-02-10T00:53:13.587Z,1005.11
2018-02-10T00:54:13.562Z,1005.11
2018-02-10T00:55:13.538Z,1005.13
2018-02-10T00:56:13.514Z,1005.12
2018-02-10T00:57:13.492Z,1005.12
2018-02-10T00:58:13.468Z,1005.16
2018-02-10T00:59:13.444Z,1005.11
2018-02-10T01:00:13.423Z,1005.16
2018-02-10T01:01:13.396Z,1005.15
2018-02-10T01:02:13.373Z,1005.14
2018-02-10T01:03:13.349Z,1005.16
2018-02-10T01:04:13.326Z,1005.15
2018-02-10T01:05:13.302Z,1005.16
2018-02-10T01:06:13.279Z,1005.23
2018-02-10T01:07:13.257Z,1005.22
2018-02-10T01:08:13.230Z,1005.17
2018-02-10T01:09:13.207Z,1005.18
2018-02-10T01:10:13.184Z,1005.2
2018-02-10T01:11:13.365Z,1005.22
2018-02-10T01:12:13.137Z,1005.22
2018-02-10T01:13:13.114Z,1005.2
2018-02-10T01:14:13.090Z,1005.21
2018-02-10T01:15:13.066Z,1005.23
2018-02-10T01:16:13.043Z,1005.22
2018-02-10T01:17:13.021Z,1005.21
2018-02-10T01:18:13.049Z,1005.25
2018-02-10T01:19:12.974Z,1005.28
2018-02-10T01:20:12.950Z,1005.23
2018-02-10T01:21:12.926Z,1005.24
2018-02-10T01:22:12.901Z,1005.24
2018-02-10T01:23:12.881Z,1005.25
2018-02-10T01:24:12.854Z,1005.24
2018-02-10T01:25:12.832Z,1005.26
2018-02-10T01:26:12.810Z,1005.24
2018-02-10T01:27:12.785Z,1005.27
2018-02-10T01:28:12.762Z,1005.29
2018-02-10T01:29:12.740Z,1005.26
2018-02-10T01:30:12.714Z,1005.25
2018-02-10T01:31:12.691Z,1005.25
2018-02-10T01:32:12.668Z,1005.25
2018-02-10T01:33:12.645Z,1005.23
2018-02-10T01:34:12.621Z,1005.25
2018-02-10T01:35:12.599Z,1005.28
2018-02-10T01:36:12.575Z,1005.24
2018-02-10T01:37:12.552Z,1005.24
2018-02-10T01:38:12.529Z,1005.17
2018-02-10T01:39:12.507Z,1005.24
2018-02-10T01:40:12.484Z,1005.23
2018-02-10T01:41:12.457Z,1005.23
2018-02-10T01:42:12.436Z,1005.27
2018-02-10T01:43:12.412Z,1005.25
2018-02-10T01:44:12.438Z,1005.26
2018-02-10T01:45:12.365Z,1005.28
2018-02-10T01:46:12.350Z,1005.29
2018-02-10T01:47:12.320Z,1005.26
2018-02-10T01:48:12.302Z,1005.27
2018-02-10T01:49:12.272Z,1005.27
2018-02-10T01:50:12.249Z,1005.28
2018-02-10T01:51:12.229Z,1005.28
2018-02-10T01:52:12.207Z,1005.29
2018-02-10T01:53:12.180Z,1005.28
2018-02-10T01:54:12.159Z,1005.28
2018-02-10T01:55:12.135Z,1005.3
2018-02-10T01:56:12.109Z,1005.29
2018-02-10T01:57:12.086Z,1005.27
2018-02-10T01:58:12.072Z,1005.29
2018-02-10T01:59:12.044Z,1005.27
2018-02-10T02:00:12.021Z,1005.28
2018-02-10T02:01:11.995Z,1005.29
2018-02-10T02:02:11.974Z,1005.28
2018-02-10T02:03:11.948Z,1005.32
2018-02-10T02:04:11.926Z,1005.32
2018-02-10T02:05:11.905Z,1005.35
2018-02-10T02:06:11.880Z,1005.39
2018-02-10T02:07:11.857Z,1005.37
2018-02-10T02:08:11.833Z,1005.36
2018-02-10T02:09:11.812Z,1005.36
2018-02-10T02:10:11.787Z,1005.34
2018-02-10T02:11:11.770Z,1005.34
2018-02-10T02:12:11.743Z,1005.29
2018-02-10T02:13:11.717Z,1005.28
2018-02-10T02:14:11.695Z,1005.24
2018-02-10T02:15:11.672Z,1005.26
2018-02-10T02:16:11.649Z,1005.24
2018-02-10T02:17:11.627Z,1005.26
2018-02-10T02:18:11.601Z,1005.27
2018-02-10T02:19:11.581Z,1005.27
2018-02-10T02:20:11.557Z,1005.23
2018-02-10T02:21:11.532Z,1005.23
2018-02-10T02:22:11.510Z,1005.26
2018-02-10T02:23:11.486Z,1005.27
2018-02-10T02:24:11.463Z,1005.23
2018-02-10T02:25:11.441Z,1005.24
2018-02-10T02:26:11.421Z,1005.29
2018-02-10T02:27:11.396Z,1005.3
2018-02-10T02:28:11.371Z,1005.24
2018-02-10T02:29:11.349Z,1005.28
2018-02-10T02:30:11.327Z,1005.26
2018-02-10T02:31:11.304Z,1005.28
2018-02-10T02:32:11.282Z,1005.31
2018-02-10T02:33:11.257Z,1005.3
2018-02-10T02:34:11.237Z,1005.27
2018-02-10T02:35:11.212Z,1005.31
2018-02-10T02:36:11.188Z,1005.3
2018-02-10T02:37:11.173Z,1005.35
2018-02-10T02:38:11.142Z,1005.31
2018-02-10T02:39:11.117Z,1005.31
2018-02-10T02:40:11.151Z,1005.31
2018-02-10T02:41:11.077Z,1005.3
2018-02-10T02:42:11.051Z,1005.26
2018-02-10T02:43:11.026Z,1005.25
2018-02-10T02:44:11.004Z,1005.24
2018-02-10T02:45:10.982Z,1005.23
2018-02-10T02:46:10.956Z,1005.24
2018-02-10T02:47:10.939Z,1005.24
2018-02-10T02:48:10.912Z,1005.19
2018-02-10T02:49:10.888Z,1005.2
2018-02-10T02:50:10.866Z,1005.22
2018-02-10T02:51:10.846Z,1005.16
2018-02-10T02:52:10.819Z,1005.21
2018-02-10T02:53:10.797Z,1005.19
2018-02-10T02:54:10.772Z,1005.18
2018-02-10T02:55:10.750Z,1005.21
2018-02-10T02:56:10.727Z,1005.2
2018-02-10T02:57:10.703Z,1005.22
2018-02-10T02:58:10.679Z,1005.22
2018-02-10T02:59:10.660Z,1005.2
2018-02-10T03:00:10.637Z,1005.22
2018-02-10T03:01:10.611Z,1005.18
2018-02-10T03:02:10.589Z,1005.19
2018-02-10T03:03:10.566Z,1005.17
2018-02-10T03:04:10.541Z,1005.18
2018-02-10T03:05:10.518Z,1005.15
2018-02-10T03:06:10.502Z,1005.18
2018-02-10T03:07:10.474Z,1005.2
2018-02-10T03:08:10.449Z,1005.16
2018-02-10T03:09:10.425Z,1005.13
2018-02-10T03:10:10.403Z,1005.16
2018-02-10T03:11:10.584Z,1005.17
2018-02-10T03:12:10.356Z,1005.21
2018-02-10T03:13:10.386Z,1005.16
2018-02-10T03:14:10.310Z,1005.18
2018-02-10T03:15:10.289Z,1005.17
2018-02-10T03:16:10.265Z,1005.17
2018-02-10T03:17:10.242Z,1005.15
2018-02-10T03:18:10.218Z,1005.19
2018-02-10T03:19:10.195Z,1005.17
2018-02-10T03:20:10.174Z,1005.18
2018-02-10T03:21:10.149Z,1005.21
2018-02-10T03:22:10.126Z,1005.21
2018-02-10T03:23:10.104Z,1005.17
2018-02-10T03:24:10.079Z,1005.2
2018-02-10T03:25:10.059Z,1005.21
2018-02-10T03:26:10.084Z,1005.2
2018-02-10T03:27:10.014Z,1005.25
2018-02-10T03:28:09.989Z,1005.24
2018-02-10T03:29:09.964Z,1005.24
2018-02-10T03:30:09.942Z,1005.26
2018-02-10T03:31:09.921Z,1005.23
2018-02-10T03:32:09.896Z,1005.27
2018-02-10T03:33:09.873Z,1005.29
2018-02-10T03:34:09.850Z,1005.27
2018-02-10T03:35:09.827Z,1005.28
2018-02-10T03:36:09.805Z,1005.29
2018-02-10T03:37:09.780Z,1005.27
2018-02-10T03:38:09.759Z,1005.26
2018-02-10T03:39:09.737Z,1005.3
2018-02-10T03:40:09.713Z,1005.32
2018-02-10T03:41:09.689Z,1005.31
2018-02-10T03:42:09.668Z,1005.28
2018-02-10T03:43:09.643Z,1005.32
2018-02-10T03:44:09.620Z,1005.27
2018-02-10T03:45:09.598Z,1005.32
2018-02-10T03:46:09.574Z,1005.29
2018-02-10T03:47:09.595Z,1005.32
2018-02-10T03:48:09.527Z,1005.29
2018-02-10T03:49:09.505Z,1005.32
2018-02-10T03:50:09.483Z,1005.37
2018-02-10T03:51:09.462Z,1005.35
2018-02-10T03:52:09.437Z,1005.34
2018-02-10T03:53:09.413Z,1005.34
2018-02-10T03:54:09.389Z,1005.35
2018-02-10T03:55:09.366Z,1005.36
2018-02-10T03:56:09.343Z,1005.32
2018-02-10T03:57:09.321Z,1005.36
2018-02-10T03:58:09.296Z,1005.32
2018-02-10T03:59:09.312Z,1005.36
2018-02-10T04:00:09.264Z,1005.35
2018-02-10T04:01:09.227Z,1005.41
2018-02-10T04:02:09.205Z,1005.4
2018-02-10T04:03:09.183Z,1005.44
2018-02-10T04:04:09.156Z,1005.46
2018-02-10T04:05:09.136Z,1005.45
2018-02-10T04:06:09.116Z,1005.47
2018-02-10T04:07:09.089Z,1005.49
2018-02-10T04:08:09.074Z,1005.48
2018-02-10T04:09:09.045Z,1005.44
2018-02-10T04:10:09.020Z,1005.51
2018-02-10T04:11:08.995Z,1005.48
2018-02-10T04:12:08.973Z,1005.58
2018-02-10T04:13:08.963Z,1005.55
2018-02-10T04:14:08.927Z,1005.58
2018-02-10T04:15:08.903Z,1005.6
2018-02-10T04:16:08.880Z,1005.61
2018-02-10T04:17:08.863Z,1005.61
2018-02-10T04:18:08.833Z,1005.6
2018-02-10T04:19:08.811Z,1005.6
2018-02-10T04:20:08.788Z,1005.57
2018-02-10T04:21:08.792Z,1005.57
2018-02-10T04:22:08.740Z,1005.56
2018-02-10T04:23:08.721Z,1005.59
2018-02-10T04:24:08.695Z,1005.64
2018-02-10T04:25:08.672Z,1005.62
2018-02-10T04:26:08.649Z,1005.61
2018-02-10T04:27:08.642Z,1005.66
2018-02-10T04:28:08.605Z,1005.63
2018-02-10T04:29:08.579Z,1005.63
2018-02-10T04:30:08.556Z,1005.64
2018-02-10T04:31:08.534Z,1005.64
2018-02-10T04:32:08.511Z,1005.66
2018-02-10T04:33:08.487Z,1005.6
2018-02-10T04:34:08.465Z,1005.62
2018-02-10T04:35:08.441Z,1005.6
2018-02-10T04:36:08.418Z,1005.59
2018-02-10T04:37:08.395Z,1005.61
2018-02-10T04:38:08.372Z,1005.57
2018-02-10T04:39:08.349Z,1005.58
2018-02-10T04:40:08.328Z,1005.54
2018-02-10T04:41:08.302Z,1005.55
2018-02-10T04:42:08.281Z,1005.57
2018-02-10T04:43:08.257Z,1005.58
2018-02-10T04:44:08.233Z,1005.58
2018-02-10T04:45:08.211Z,1005.53
2018-02-10T04:46:08.188Z,1005.56
2018-02-10T04:47:08.163Z,1005.58
2018-02-10T04:48:08.190Z,1005.63
2018-02-10T04:49:08.118Z,1005.65
2018-02-10T04:50:08.095Z,1005.62
2018-02-10T04:51:08.072Z,1005.64
2018-02-10T04:52:08.050Z,1005.61
2018-02-10T04:53:08.027Z,1005.63
2018-02-10T04:54:08.009Z,1005.59
2018-02-10T04:55:07.981Z,1005.7
2018-02-10T04:56:07.958Z,1005.66
2018-02-10T04:57:07.943Z,1005.68
2018-02-10T04:58:07.911Z,1005.71
2018-02-10T04:59:07.888Z,1005.68
2018-02-10T05:00:07.868Z,1005.69
2018-02-10T05:01:07.843Z,1005.7
2018-02-10T05:02:07.828Z,1005.67
2018-02-10T05:03:07.898Z,1005.68
2018-02-10T05:04:07.780Z,1005.66
2018-02-10T05:05:07.751Z,1005.68
2018-02-10T05:06:07.729Z,1005.66
2018-02-10T05:07:07.705Z,1005.7
2018-02-10T05:08:07.695Z,1005.72
2018-02-10T05:09:07.658Z,1005.71
2018-02-10T05:10:07.635Z,1005.75
2018-02-10T05:11:07.815Z,1005.76
2018-02-10T05:12:07.590Z,1005.78
2018-02-10T05:13:07.566Z,1005.78
2018-02-10T05:14:07.545Z,1005.75
2018-02-10T05:15:07.524Z,1005.77
2018-02-10T05:16:07.506Z,1005.78
2018-02-10T05:17:07.474Z,1005.77
2018-02-10T05:18:07.452Z,1005.76
2018-02-10T05:19:07.430Z,1005.79
2018-02-10T05:20:07.410Z,1005.77
2018-02-10T05:21:07.383Z,1005.8
2018-02-10T05:22:07.359Z,1005.77
2018-02-10T05:23:07.336Z,1005.79
2018-02-10T05:24:07.312Z,1005.83
2018-02-10T05:25:07.290Z,1005.78
2018-02-10T05:26:07.267Z,1005.8
2018-02-10T05:27:07.244Z,1005.85
2018-02-10T05:28:07.220Z,1005.85
2018-02-10T05:29:07.197Z,1005.85
2018-02-10T05:30:07.219Z,1005.84
2018-02-10T05:31:07.151Z,1005.85
2018-02-10T05:32:07.129Z,1005.84
2018-02-10T05:33:07.106Z,1005.86
2018-02-10T05:34:07.132Z,1005.82
2018-02-10T05:35:07.061Z,1005.83
2018-02-10T05:36:07.038Z,1005.81
2018-02-10T05:37:07.013Z,1005.86
2018-02-10T05:38:06.991Z,1005.83
2018-02-10T05:39:06.969Z,1005.83
2018-02-10T05:40:06.945Z,1005.8
2018-02-10T05:41:06.922Z,1005.8
2018-02-10T05:42:06.898Z,1005.79
2018-02-10T05:43:06.873Z,1005.78
2018-02-10T05:44:06.850Z,1005.8
2018-02-10T05:45:06.831Z,1005.79
2018-02-10T05:46:06.806Z,1005.75
2018-02-10T05:47:06.787Z,1005.73
2018-02-10T05:48:06.758Z,1005.75
2018-02-10T05:49:06.734Z,1005.75
2018-02-10T05:50:06.710Z,1005.75
2018-02-10T05:51:06.693Z,1005.74
2018-02-10T05:52:06.668Z,1005.72
2018-02-10T05:53:06.641Z,1005.68
2018-02-10T05:54:06.619Z,1005.7
2018-02-10T05:55:06.595Z,1005.71
2018-02-10T05:56:06.574Z,1005.71
2018-02-10T05:57:06.552Z,1005.74
2018-02-10T05:58:06.526Z,1005.72
2018-02-10T05:59:06.504Z,1005.73
2018-02-10T06:00:06.479Z,1005.76
2018-02-10T06:01:06.456Z,1005.75
2018-02-10T06:02:06.434Z,1005.76
2018-02-10T06:03:06.411Z,1005.77
2018-02-10T06:04:06.387Z,1005.78
2018-02-10T06:05:06.364Z,1005.78
2018-02-10T06:06:06.342Z,1005.82
2018-02-10T06:07:06.316Z,1005.77
2018-02-10T06:08:06.294Z,1005.79
2018-02-10T06:09:06.272Z,1005.8
2018-02-10T06:10:06.248Z,1005.81
2018-02-10T06:11:06.226Z,1005.83
2018-02-10T06:12:06.202Z,1005.84
2018-02-10T06:13:06.187Z,1005.87
2018-02-10T06:14:06.156Z,1005.88
2018-02-10T06:15:06.132Z,1005.89
2018-02-10T06:16:06.110Z,1005.9
2018-02-10T06:17:06.098Z,1005.92
2018-02-10T06:18:06.062Z,1005.92
2018-02-10T06:19:06.044Z,1005.93
2018-02-10T06:20:06.018Z,1005.94
2018-02-10T06:21:05.994Z,1005.89
2018-02-10T06:22:05.972Z,1005.96
2018-02-10T06:23:05.953Z,1005.96
2018-02-10T06:24:05.925Z,1005.94
2018-02-10T06:25:05.903Z,1005.98
2018-02-10T06:26:05.885Z,1005.95
2018-02-10T06:27:05.860Z,1005.96
2018-02-10T06:28:05.832Z,1005.96
2018-02-10T06:29:05.812Z,1005.97
2018-02-10T06:30:05.787Z,1005.93
2018-02-10T06:31:05.762Z,1005.96
2018-02-10T06:32:05.740Z,1005.94
2018-02-10T06:33:05.723Z,1005.91
2018-02-10T06:34:05.700Z,1005.95
2018-02-10T06:35:05.672Z,1005.92
2018-02-10T06:36:05.682Z,1005.89
2018-02-10T06:37:05.624Z,1005.89
2018-02-10T06:38:05.657Z,1005.88
2018-02-10T06:39:05.584Z,1005.87
2018-02-10T06:40:05.554Z,1005.87
2018-02-10T06:41:05.532Z,1005.88
2018-02-10T06:42:05.511Z,1005.86
2018-02-10T06:43:05.488Z,1005.88
2018-02-10T06:44:05.463Z,1005.83
2018-02-10T06:45:05.441Z,1005.84
2018-02-10T06:46:05.436Z,1005.87
2018-02-10T06:47:05.396Z,1005.86
2018-02-10T06:48:05.374Z,1005.85
2018-02-10T06:49:05.349Z,1005.87
2018-02-10T06:50:05.325Z,1005.83
2018-02-10T06:51:05.301Z,1005.85
2018-02-10T06:52:05.279Z,1005.89
2018-02-10T06:53:05.256Z,1005.93
2018-02-10T06:54:05.233Z,1005.91
2018-02-10T06:55:05.209Z,1005.88
2018-02-10T06:56:05.186Z,1005.9
2018-02-10T06:57:05.167Z,1005.91
2018-02-10T06:58:05.148Z,1005.91
2018-02-10T06:59:05.119Z,1005.88
2018-02-10T07:00:05.095Z,1005.88
2018-02-10T07:01:05.121Z,1005.91
2018-02-10T07:02:05.049Z,1005.94
2018-02-10T07:03:05.025Z,1005.91
2018-02-10T07:04:05.002Z,1005.96
2018-02-10T07:05:04.979Z,1005.96
2018-02-10T07:06:04.954Z,1006.01
2018-02-10T07:07:04.931Z,1005.99
2018-02-10T07:08:04.912Z,1005.99
2018-02-10T07:09:04.890Z,1006.02
2018-02-10T07:10:04.864Z,1005.99
2018-02-10T07:11:04.840Z,1006.01
2018-02-10T07:12:04.821Z,1006
2018-02-10T07:13:04.795Z,1006.04
2018-02-10T07:14:04.771Z,1006.05
2018-02-10T07:15:04.756Z,1006.05
2018-02-10T07:16:04.731Z,1006.05
2018-02-10T07:17:04.701Z,1006.06
2018-02-10T07:18:04.687Z,1006.05
2018-02-10T07:19:04.686Z,1006.11
2018-02-10T07:20:04.634Z,1006.08
2018-02-10T07:21:04.610Z,1006.1
2018-02-10T07:22:04.587Z,1006.08
2018-02-10T07:23:04.564Z,1006.1
2018-02-10T07:24:04.539Z,1006.13
2018-02-10T07:25:04.518Z,1006.07
2018-02-10T07:26:04.494Z,1006.1
2018-02-10T07:27:04.471Z,1006.13
2018-02-10T07:28:04.450Z,1006.14
2018-02-10T07:29:04.427Z,1006.15
2018-02-10T07:30:04.401Z,1006.16
2018-02-10T07:31:04.380Z,1006.16
2018-02-10T07:32:04.355Z,1006.17
2018-02-10T07:33:04.333Z,1006.17
2018-02-10T07:34:04.312Z,1006.18
2018-02-10T07:35:04.286Z,1006.15
2018-02-10T07:36:04.267Z,1006.21
2018-02-10T07:37:04.243Z,1006.25
2018-02-10T07:38:04.218Z,1006.25
2018-02-10T07:39:04.196Z,1006.26
2018-02-10T07:40:04.172Z,1006.29
2018-02-10T07:41:04.151Z,1006.28
2018-02-10T07:42:04.126Z,1006.32
2018-02-10T07:43:04.104Z,1006.28
2018-02-10T07:44:04.082Z,1006.3
2018-02-10T07:45:04.060Z,1006.31
2018-02-10T07:46:04.034Z,1006.3
2018-02-10T07:47:04.013Z,1006.3
2018-02-10T07:48:03.993Z,1006.28
2018-02-10T07:49:03.967Z,1006.29
2018-02-10T07:50:03.942Z,1006.31
2018-02-10T07:51:03.928Z,1006.31
2018-02-10T07:52:03.897Z,1006.29
2018-02-10T07:53:03.873Z,1006.31
2018-02-10T07:54:03.853Z,1006.3
2018-02-10T07:55:03.827Z,1006.28
2018-02-10T07:56:03.805Z,1006.33
2018-02-10T07:57:03.780Z,1006.32
2018-02-10T07:58:03.760Z,1006.37
2018-02-10T07:59:03.742Z,1006.37
2018-02-10T08:00:03.712Z,1006.38
2018-02-10T08:01:03.689Z,1006.41
2018-02-10T08:02:03.669Z,1006.37
2018-02-10T08:03:03.653Z,1006.38
2018-02-10T08:04:03.626Z,1006.39
2018-02-10T08:05:03.609Z,1006.39
2018-02-10T08:06:03.683Z,1006.44
2018-02-10T08:07:03.559Z,1006.38
2018-02-10T08:08:03.528Z,1006.38
2018-02-10T08:09:03.536Z,1006.38
2018-02-10T08:10:03.482Z,1006.43
2018-02-10T08:11:03.464Z,1006.42
2018-02-10T08:12:03.437Z,1006.43
2018-02-10T08:13:03.416Z,1006.45
2018-02-10T08:14:03.391Z,1006.45
2018-02-10T08:15:03.367Z,1006.45
2018-02-10T08:16:03.345Z,1006.45
2018-02-10T08:17:03.323Z,1006.45
2018-02-10T08:18:03.308Z,1006.45
2018-02-10T08:19:03.275Z,1006.46
2018-02-10T08:20:03.253Z,1006.41
2018-02-10T08:21:03.248Z,1006.42
2018-02-10T08:22:03.213Z,1006.46
2018-02-10T08:23:03.184Z,1006.46
2018-02-10T08:24:03.162Z,1006.49
2018-02-10T08:25:03.140Z,1006.45
2018-02-10T08:26:03.115Z,1006.48
2018-02-10T08:27:03.092Z,1006.46
2018-02-10T08:28:03.068Z,1006.44
2018-02-10T08:29:03.047Z,1006.46
2018-02-10T08:30:03.023Z,1006.43
2018-02-10T08:31:02.999Z,1006.41
2018-02-10T08:32:02.977Z,1006.42
2018-02-10T08:33:02.953Z,1006.37
2018-02-10T08:34:02.930Z,1006.39
2018-02-10T08:35:02.915Z,1006.36
2018-02-10T08:36:02.886Z,1006.4
2018-02-10T08:37:02.863Z,1006.42
2018-02-10T08:38:02.840Z,1006.42
2018-02-10T08:39:02.819Z,1006.42
2018-02-10T08:40:02.798Z,1006.4
2018-02-10T08:41:02.773Z,1006.5
2018-02-10T08:42:02.748Z,1006.44
2018-02-10T08:43:02.778Z,1006.48
2018-02-10T08:44:02.708Z,1006.51
2018-02-10T08:45:02.681Z,1006.5
2018-02-10T08:46:02.657Z,1006.49
2018-02-10T08:47:02.635Z,1006.51
2018-02-10T08:48:02.662Z,1006.53
2018-02-10T08:49:02.589Z,1006.53
2018-02-10T08:50:02.567Z,1006.54
2018-02-10T08:51:02.543Z,1006.5
2018-02-10T08:52:02.521Z,1006.53
2018-02-10T08:53:02.697Z,1006.55
2018-02-10T08:54:02.474Z,1006.6
2018-02-10T08:55:02.452Z,1006.61
2018-02-10T08:56:02.429Z,1006.6
2018-02-10T08:57:02.406Z,1006.57
2018-02-10T08:58:02.433Z,1006.58
2018-02-10T08:59:02.358Z,1006.66
2018-02-10T09:00:02.338Z,1006.68
2018-02-10T09:01:02.317Z,1006.65
2018-02-10T09:02:02.293Z,1006.66
2018-02-10T09:03:02.269Z,1006.67
2018-02-10T09:04:02.248Z,1006.67
2018-02-10T09:05:02.226Z,1006.67
2018-02-10T09:06:02.202Z,1006.62
2018-02-10T09:07:02.179Z,1006.65
2018-02-10T09:08:02.159Z,1006.62
2018-02-10T09:09:02.138Z,1006.66
2018-02-10T09:10:02.116Z,1006.61
2018-02-10T09:11:02.088Z,1006.64
2018-02-10T09:12:02.270Z,1006.63
2018-02-10T09:13:02.043Z,1006.61
2018-02-10T09:14:02.024Z,1006.6
2018-02-10T09:15:02.011Z,1006.62
2018-02-10T09:16:01.975Z,1006.63
2018-02-10T09:17:01.953Z,1006.64
2018-02-10T09:18:01.937Z,1006.64
2018-02-10T09:19:01.908Z,1006.63
2018-02-10T09:20:01.887Z,1006.62
2018-02-10T09:21:01.864Z,1006.63
2018-02-10T09:22:01.856Z,1006.65
2018-02-10T09:23:01.819Z,1006.57
2018-02-10T09:24:01.798Z,1006.6
2018-02-10T09:25:01.777Z,1006.64
2018-02-10T09:26:01.755Z,1006.6
2018-02-10T09:27:01.733Z,1006.62
2018-02-10T09:28:01.711Z,1006.62
2018-02-10T09:29:01.685Z,1006.65
2018-02-10T09:30:01.664Z,1006.65
2018-02-10T09:31:01.643Z,1006.66
2018-02-10T09:32:01.619Z,1006.62
2018-02-10T09:33:01.596Z,1006.65
2018-02-10T09:34:01.580Z,1006.66
2018-02-10T09:35:01.557Z,1006.65
2018-02-10T09:36:01.530Z,1006.65
2018-02-10T09:37:01.510Z,1006.66
2018-02-10T09:38:01.488Z,1006.68
2018-02-10T09:39:01.463Z,1006.67
2018-02-10T09:40:01.441Z,1006.7
2018-02-10T09:41:01.419Z,1006.67
2018-02-10T09:42:01.404Z,1006.68
2018-02-10T09:43:01.374Z,1006.67
2018-02-10T09:44:01.353Z,1006.69
2018-02-10T09:45:01.333Z,1006.68
2018-02-10T09:46:01.310Z,1006.69
2018-02-10T09:47:01.291Z,1006.71
2018-02-10T09:48:01.269Z,1006.75
2018-02-10T09:49:01.252Z,1006.77
2018-02-10T09:50:01.229Z,1006.77
2018-02-10T09:51:01.201Z,1006.77
2018-02-10T09:52:01.179Z,1006.8
2018-02-10T09:53:01.158Z,1006.76
2018-02-10T09:54:01.136Z,1006.78
2018-02-10T09:55:01.113Z,1006.79
2018-02-10T09:56:01.092Z,1006.76
2018-02-10T09:57:01.070Z,1006.75
2018-02-10T09:58:01.048Z,1006.78
2018-02-10T09:59:01.026Z,1006.75
2018-02-10T10:00:01.006Z,1006.77
2018-02-10T10:01:00.981Z,1006.77
2018-02-10T10:02:00.959Z,1006.69
2018-02-10T10:03:00.936Z,1006.69
2018-02-10T10:04:00.919Z,1006.68
2018-02-10T10:05:00.894Z,1006.7
2018-02-10T10:06:00.870Z,1006.69
2018-02-10T10:07:00.848Z,1006.67
2018-02-10T10:08:00.825Z,1006.73
2018-02-10T10:09:00.851Z,1006.68
2018-02-10T10:10:00.781Z,1006.69
2018-02-10T10:11:00.758Z,1006.67
2018-02-10T10:12:00.736Z,1006.62
2018-02-10T10:13:00.717Z,1006.64
2018-02-10T10:14:00.741Z,1006.64
2018-02-10T10:15:00.669Z,1006.66
2018-02-10T10:16:00.648Z,1006.62
2018-02-10T10:17:00.629Z,1006.62
2018-02-10T10:18:00.604Z,1006.68
2018-02-10T10:19:00.633Z,1006.67
2018-02-10T10:20:00.558Z,1006.66
2018-02-10T10:21:00.536Z,1006.7
2018-02-10T10:22:00.518Z,1006.69
2018-02-10T10:23:00.493Z,1006.71
2018-02-10T10:24:00.467Z,1006.7
2018-02-10T10:25:00.445Z,1006.67
2018-02-10T10:26:00.433Z,1006.71
2018-02-10T10:27:00.403Z,1006.65
2018-02-10T10:28:00.378Z,1006.67
2018-02-10T10:29:00.358Z,1006.69
2018-02-10T10:30:00.350Z,1006.73
2018-02-10T10:31:00.315Z,1006.72
2018-02-10T10:32:00.292Z,1006.71
2018-02-10T10:33:00.268Z,1006.73
2018-02-10T10:34:00.246Z,1006.69
2018-02-10T10:35:00.246Z,1006.67
2018-02-10T10:36:00.202Z,1006.66
2018-02-10T10:37:00.178Z,1006.61
2018-02-10T10:38:00.158Z,1006.65
2018-02-10T10:39:00.132Z,1006.62
2018-02-10T10:40:00.112Z,1006.6
2018-02-10T10:41:00.093Z,1006.63
2018-02-10T10:42:00.068Z,1006.59
2018-02-10T10:43:00.045Z,1006.63
2018-02-10T10:44:00.031Z,1006.61
2018-02-10T10:44:59.997Z,1006.63
2018-02-10T10:45:59.989Z,1006.61
2018-02-10T10:46:59.953Z,1006.58
2018-02-10T10:47:59.930Z,1006.6
2018-02-10T10:48:59.907Z,1006.6
2018-02-10T10:49:59.885Z,1006.56
2018-02-10T10:50:59.862Z,1006.53
2018-02-10T10:51:59.843Z,1006.55
2018-02-10T10:52:59.817Z,1006.54
2018-02-10T10:53:59.800Z,1006.58
2018-02-10T10:54:59.779Z,1006.6
2018-02-10T10:55:59.750Z,1006.57
2018-02-10T10:56:59.728Z,1006.63
2018-02-10T10:57:59.706Z,1006.64
2018-02-10T10:58:59.686Z,1006.65
2018-02-10T10:59:59.661Z,1006.64
2018-02-10T11:00:59.638Z,1006.63
2018-02-10T11:01:59.617Z,1006.63
2018-02-10T11:02:59.594Z,1006.66
2018-02-10T11:03:59.573Z,1006.61
2018-02-10T11:04:59.550Z,1006.62
2018-02-10T11:05:59.529Z,1006.6
2018-02-10T11:06:59.506Z,1006.61
2018-02-10T11:07:59.489Z,1006.6
2018-02-10T11:08:59.461Z,1006.59
2018-02-10T11:09:59.438Z,1006.58
2018-02-10T11:10:59.418Z,1006.58
2018-02-10T11:11:59.598Z,1006.56
2018-02-10T11:12:59.372Z,1006.58
2018-02-10T11:13:59.349Z,1006.58
2018-02-10T11:14:59.326Z,1006.61
2018-02-10T11:15:59.307Z,1006.56
2018-02-10T11:16:59.286Z,1006.56
2018-02-10T11:17:59.259Z,1006.54
2018-02-10T11:18:59.238Z,1006.58
2018-02-10T11:19:59.216Z,1006.55
2018-02-10T11:20:59.196Z,1006.58
2018-02-10T11:21:59.171Z,1006.49
2018-02-10T11:22:59.150Z,1006.5
2018-02-10T11:23:59.129Z,1006.54
2018-02-10T11:24:59.105Z,1006.5
2018-02-10T11:25:59.089Z,1006.47
2018-02-10T11:26:59.066Z,1006.51
2018-02-10T11:27:59.039Z,1006.49
2018-02-10T11:28:59.017Z,1006.44
2018-02-10T11:29:58.997Z,1006.49
2018-02-10T11:30:58.973Z,1006.55
2018-02-10T11:31:58.950Z,1006.55
2018-02-10T11:32:58.927Z,1006.48
2018-02-10T11:33:58.906Z,1006.49
2018-02-10T11:34:58.883Z,1006.53
2018-02-10T11:35:58.860Z,1006.51
2018-02-10T11:36:58.839Z,1006.54
2018-02-10T11:37:58.815Z,1006.53
2018-02-10T11:38:58.794Z,1006.54
2018-02-10T11:39:58.782Z,1006.5
2018-02-10T11:40:58.754Z,1006.54
2018-02-10T11:41:58.727Z,1006.56
2018-02-10T11:42:58.706Z,1006.56
2018-02-10T11:43:58.682Z,1006.55
2018-02-10T11:44:58.660Z,1006.58
2018-02-10T11:45:58.639Z,1006.58
2018-02-10T11:46:58.613Z,1006.51
2018-02-10T11:47:58.594Z,1006.55
2018-02-10T11:48:58.572Z,1006.55
2018-02-10T11:49:58.552Z,1006.53
2018-02-10T11:50:58.528Z,1006.54
2018-02-10T11:51:58.504Z,1006.48
2018-02-10T11:52:58.483Z,1006.46
2018-02-10T11:53:58.459Z,1006.47
2018-02-10T11:54:58.439Z,1006.51
2018-02-10T11:55:58.442Z,1006.44
2018-02-10T11:56:58.401Z,1006.42
2018-02-10T11:57:58.372Z,1006.43
2018-02-10T11:58:58.351Z,1006.41
2018-02-10T11:59:58.330Z,1006.46
2018-02-10T12:00:58.326Z,1006.44
2018-02-10T12:01:58.290Z,1006.47
2018-02-10T12:02:58.265Z,1006.45
2018-02-10T12:03:58.240Z,1006.44
2018-02-10T12:04:58.217Z,1006.46
2018-02-10T12:05:58.246Z,1006.48
2018-02-10T12:06:58.175Z,1006.46
2018-02-10T12:07:58.152Z,1006.47